createdAt,value
2023-02-25T00:00:34.514Z,100.00
2023-02-25T00:03:05.959Z,100.00
2023-02-25T00:05:40.900Z,100.00
2023-02-25T00:08:12.245Z,100.00
2023-02-25T00:10:43.509Z,100.00
2023-02-25T00:13:18.438Z,100.00
2023-02-25T00:15:49.886Z,100.00
2023-02-25T00:18:21.340Z,100.00
2023-02-25T00:20:52.704Z,100.00
2023-02-25T00:23:24.322Z,100.00
2023-02-25T00:26:06.694Z,100.00
2023-02-25T00:28:39.982Z,100.00
2023-02-25T00:31:17.313Z,100.00
2023-02-25T00:33:49.441Z,100.00
2023-02-25T00:36:24.283Z,100.00
2023-02-25T00:38:57.359Z,100.00
2023-02-25T00:41:30.684Z,100.00
2023-02-25T00:44:02.230Z,100.00
2023-02-25T00:46:34.123Z,100.00
2023-02-25T00:49:05.468Z,100.00
2023-02-25T00:51:38.422Z,100.00
2023-02-25T00:54:09.720Z,100.00
2023-02-25T00:56:40.986Z,100.00
2023-02-25T00:59:12.246Z,100.00
2023-02-25T01:01:43.971Z,100.00
2023-02-25T01:04:15.328Z,100.00
2023-02-25T01:06:46.685Z,100.00
2023-02-25T01:09:18.023Z,100.00
2023-02-25T01:11:50.224Z,100.00
2023-02-25T01:14:24.592Z,100.00
2023-02-25T01:17:01.936Z,100.00
2023-02-25T01:19:33.240Z,100.00
2023-02-25T01:22:04.596Z,100.00
2023-02-25T01:24:35.909Z,100.00
2023-02-25T01:27:07.406Z,100.00
2023-02-25T01:29:40.383Z,100.00
2023-02-25T01:32:14.133Z,100.00
2023-02-25T01:34:45.511Z,100.00
2023-02-25T01:37:17.143Z,100.00
2023-02-25T01:39:48.417Z,100.00
2023-02-25T01:42:20.041Z,100.00
2023-02-25T01:45:21.924Z,100.00
2023-02-25T01:47:58.771Z,100.00
2023-02-25T01:50:41.879Z,100.00
2023-02-25T01:53:15.271Z,100.00
2023-02-25T01:55:46.908Z,100.00
2023-02-25T01:58:18.665Z,100.00
2023-02-25T02:00:55.469Z,100.00
2023-02-25T02:03:31.709Z,100.00
2023-02-25T02:06:09.511Z,100.00
2023-02-25T02:08:44.124Z,100.00
2023-02-25T02:11:15.726Z,100.00
2023-02-25T02:13:51.054Z,100.00
2023-02-25T02:16:56.591Z,100.00
2023-02-25T02:19:39.544Z,100.00
2023-02-25T02:22:24.064Z,100.00
2023-02-25T02:25:36.791Z,100.00
2023-02-25T02:29:05.480Z,100.00
2023-02-25T02:31:50.519Z,100.00
2023-02-25T02:34:40.923Z,100.00
2023-02-25T02:37:26.269Z,100.00
2023-02-25T02:40:36.472Z,100.00
2023-02-25T02:43:31.519Z,100.00
2023-02-25T02:46:14.859Z,100.00
2023-02-25T02:48:58.865Z,100.00
2023-02-25T02:51:37.970Z,100.00
2023-02-25T02:54:13.962Z,100.00
2023-02-25T02:56:49.092Z,100.00
2023-02-25T02:59:35.079Z,100.00
2023-02-25T03:02:14.100Z,99.41
2023-02-25T03:04:50.045Z,100.00
2023-02-25T03:07:23.086Z,100.00
2023-02-25T03:10:00.617Z,100.00
2023-02-25T03:12:32.255Z,99.19
2023-02-25T03:15:03.610Z,99.78
2023-02-25T03:17:46.905Z,100.00
2023-02-25T03:20:35.484Z,100.00
2023-02-25T03:23:12.705Z,100.00
2023-02-25T03:25:48.429Z,100.00
2023-02-25T03:28:30.557Z,100.00
2023-02-25T03:31:09.050Z,100.00
2023-02-25T03:33:51.511Z,100.00
2023-02-25T03:36:36.438Z,100.00
2023-02-25T03:39:14.322Z,100.00
2023-02-25T03:41:48.794Z,100.00
2023-02-25T03:44:28.366Z,100.00
2023-02-25T03:47:00.923Z,100.00
2023-02-25T03:49:40.894Z,100.00
2023-02-25T03:52:15.572Z,100.00
2023-02-25T03:54:55.324Z,100.00
2023-02-25T03:57:35.246Z,100.00
2023-02-25T04:00:22.610Z,100.00
2023-02-25T04:02:54.138Z,100.00
2023-02-25T04:05:29.383Z,100.00
2023-02-25T04:08:00.653Z,100.00
2023-02-25T04:10:33.333Z,100.00
2023-02-25T04:13:05.831Z,100.00
2023-02-25T04:15:37.906Z,100.00
2023-02-25T04:18:09.422Z,100.00
2023-02-25T04:20:40.993Z,100.00
2023-02-25T04:23:14.543Z,100.00
2023-02-25T04:25:45.829Z,100.00
2023-02-25T04:28:17.535Z,100.00
2023-02-25T04:30:49.044Z,100.00
2023-02-25T04:33:20.441Z,100.00
2023-02-25T04:35:52.008Z,100.00
2023-02-25T04:38:23.346Z,100.00
2023-02-25T04:40:54.734Z,100.00
2023-02-25T04:43:26.062Z,100.00
2023-02-25T04:45:57.334Z,100.00
2023-02-25T04:48:28.596Z,100.00
2023-02-25T04:51:03.486Z,100.00
2023-02-25T04:53:34.948Z,100.00
2023-02-25T04:56:07.908Z,100.00
2023-02-25T04:58:39.811Z,100.00
2023-02-25T05:01:11.519Z,100.00
2023-02-25T05:03:43.033Z,100.00
2023-02-25T05:06:14.369Z,100.00
2023-02-25T05:08:45.642Z,100.00
2023-02-25T05:11:17.968Z,100.00
2023-02-25T05:13:49.323Z,100.00
2023-02-25T05:16:20.876Z,100.00
2023-02-25T05:18:53.061Z,100.00
2023-02-25T05:21:26.512Z,100.00
2023-02-25T05:23:57.783Z,100.00
2023-02-25T05:26:29.262Z,100.00
2023-02-25T05:29:00.659Z,100.00
2023-02-25T05:31:32.178Z,100.00
2023-02-25T05:34:03.577Z,100.00
2023-02-25T05:36:34.852Z,100.00
2023-02-25T05:39:06.499Z,100.00
2023-02-25T05:41:38.857Z,100.00
2023-02-25T05:44:11.640Z,100.00
2023-02-25T05:46:43.013Z,100.00
2023-02-25T05:49:14.283Z,100.00
2023-02-25T05:51:45.572Z,100.00
2023-02-25T05:54:16.997Z,100.00
2023-02-25T05:56:51.924Z,100.00
2023-02-25T05:59:23.248Z,100.00
2023-02-25T06:01:54.605Z,100.00
2023-02-25T06:04:25.913Z,100.00
2023-02-25T06:06:57.205Z,100.00
2023-02-25T06:09:29.060Z,100.00
2023-02-25T06:12:00.696Z,100.00
2023-02-25T06:14:31.980Z,100.00
2023-02-25T06:17:03.298Z,100.00
2023-02-25T06:19:34.561Z,100.00
2023-02-25T06:22:05.848Z,100.00
2023-02-25T06:24:37.281Z,99.95
2023-02-25T06:27:08.595Z,99.28
2023-02-25T06:29:41.700Z,100.00
2023-02-25T06:32:13.820Z,100.00
2023-02-25T06:34:45.286Z,100.00
2023-02-25T06:37:16.583Z,100.00
2023-02-25T06:39:47.866Z,100.00
2023-02-25T06:42:19.214Z,100.00
2023-02-25T06:44:50.496Z,100.00
2023-02-25T06:47:22.890Z,100.00
2023-02-25T06:49:54.141Z,100.00
2023-02-25T06:52:25.439Z,100.00
2023-02-25T06:54:56.764Z,100.00
2023-02-25T06:57:28.039Z,100.00
2023-02-25T06:59:59.350Z,100.00
2023-02-25T07:02:30.825Z,100.00
2023-02-25T07:05:02.848Z,100.00
2023-02-25T07:07:34.252Z,100.00
2023-02-25T07:10:06.390Z,100.00
2023-02-25T07:12:37.710Z,100.00
2023-02-25T07:15:09.599Z,100.00
2023-02-25T07:17:40.971Z,100.00
2023-02-25T07:20:12.511Z,100.00
2023-02-25T07:22:43.823Z,100.00
2023-02-25T07:25:15.150Z,100.00
2023-02-25T07:27:46.836Z,100.00
2023-02-25T07:30:18.342Z,100.00
2023-02-25T07:32:49.651Z,100.00
2023-02-25T07:35:21.023Z,100.00
2023-02-25T07:37:52.291Z,100.00
2023-02-25T07:40:23.631Z,100.00
2023-02-25T07:42:54.920Z,100.00
2023-02-25T07:45:26.206Z,100.00
2023-02-25T07:47:57.536Z,100.00
2023-02-25T07:50:28.852Z,100.00
2023-02-25T07:53:00.156Z,100.00
2023-02-25T07:55:31.448Z,100.00
2023-02-25T07:58:02.746Z,100.00
2023-02-25T08:00:34.013Z,100.00
2023-02-25T08:03:05.591Z,100.00
2023-02-25T08:05:38.143Z,100.00
2023-02-25T08:08:09.420Z,100.00
2023-02-25T08:10:40.753Z,100.00
2023-02-25T08:13:12.057Z,100.00
2023-02-25T08:15:44.178Z,100.00
2023-02-25T08:18:15.545Z,100.00
2023-02-25T08:20:47.475Z,100.00
2023-02-25T08:23:19.589Z,100.00
2023-02-25T08:25:55.260Z,100.00
2023-02-25T08:28:30.526Z,100.00
2023-02-25T08:31:06.311Z,100.00
2023-02-25T08:33:39.792Z,100.00
2023-02-25T08:36:16.020Z,100.00
2023-02-25T08:38:47.605Z,100.00
2023-02-25T08:41:21.177Z,100.00
2023-02-25T08:43:54.898Z,100.00
2023-02-25T08:46:29.271Z,100.00
2023-02-25T08:49:01.157Z,100.00
2023-02-25T08:51:35.996Z,100.00
2023-02-25T08:54:11.837Z,100.00
2023-02-25T08:56:44.301Z,100.00
2023-02-25T08:59:16.617Z,100.00
2023-02-25T09:01:49.201Z,100.00
2023-02-25T09:04:23.617Z,100.00
2023-02-25T09:06:55.060Z,100.00
2023-02-25T09:09:26.443Z,100.00
2023-02-25T09:11:57.864Z,100.00
2023-02-25T09:14:29.166Z,100.00
2023-02-25T09:17:03.965Z,100.00
2023-02-25T09:19:38.711Z,100.00
2023-02-25T09:22:10.426Z,99.34
2023-02-25T09:24:41.769Z,100.00
2023-02-25T09:27:13.075Z,100.00
2023-02-25T09:29:44.347Z,99.55
2023-02-25T09:32:20.821Z,99.52
2023-02-25T09:34:52.726Z,99.58
2023-02-25T09:37:25.601Z,100.00
2023-02-25T09:39:57.415Z,100.00
2023-02-25T09:42:44.155Z,99.58
2023-02-25T09:45:18.020Z,100.00
2023-02-25T09:48:23.096Z,100.00
2023-02-25T09:51:03.747Z,100.00
2023-02-25T09:53:41.788Z,100.00
2023-02-25T09:56:17.599Z,100.00
2023-02-25T09:58:56.826Z,100.00
2023-02-25T10:01:42.326Z,100.00
2023-02-25T10:04:41.457Z,100.00
2023-02-25T10:07:24.377Z,100.00
2023-02-25T10:10:02.401Z,100.00
2023-02-25T10:12:52.618Z,100.00
2023-02-25T10:15:34.149Z,100.00
2023-02-25T10:18:30.040Z,100.00
2023-02-25T10:21:24.217Z,100.00
2023-02-25T10:24:03.770Z,100.00
2023-02-25T10:26:39.409Z,100.00
2023-02-25T10:29:28.147Z,100.00
2023-02-25T10:32:12.182Z,97.93
2023-02-25T10:34:43.959Z,99.78
2023-02-25T10:37:37.499Z,98.93
2023-02-25T10:40:14.957Z,99.68
2023-02-25T10:42:49.234Z,100.00
2023-02-25T10:45:25.605Z,99.72
2023-02-25T10:48:11.288Z,97.28
2023-02-25T10:50:46.128Z,100.00
2023-02-25T10:53:18.442Z,100.00
2023-02-25T10:55:52.183Z,100.00
2023-02-25T10:58:57.948Z,100.00
2023-02-25T11:01:36.482Z,99.15
2023-02-25T11:04:14.984Z,100.00
2023-02-25T11:06:47.676Z,100.00
2023-02-25T11:09:19.007Z,99.94
2023-02-25T11:12:08.820Z,99.81
2023-02-25T11:14:40.323Z,100.00
2023-02-25T11:17:20.270Z,99.67
2023-02-25T11:20:02.274Z,99.14
2023-02-25T11:22:42.967Z,100.00
2023-02-25T11:25:20.384Z,100.00
2023-02-25T11:27:58.797Z,100.00
2023-02-25T11:30:38.971Z,99.71
2023-02-25T11:33:25.797Z,100.00
2023-02-25T11:35:59.757Z,99.05
2023-02-25T11:38:42.331Z,100.00
2023-02-25T11:41:23.670Z,100.00
2023-02-25T11:43:55.253Z,100.00
2023-02-25T11:46:31.114Z,100.00
2023-02-25T11:49:22.076Z,100.00
2023-02-25T11:52:25.953Z,99.97
2023-02-25T11:54:57.303Z,100.00
2023-02-25T11:57:41.024Z,100.00
2023-02-25T12:00:19.186Z,99.57
2023-02-25T12:03:34.795Z,99.20
2023-02-25T12:06:32.221Z,96.63
2023-02-25T12:09:25.390Z,99.38
2023-02-25T12:12:37.845Z,98.08
2023-02-25T12:15:34.471Z,99.58
2023-02-25T12:18:44.853Z,100.00
2023-02-25T12:21:44.731Z,98.24
2023-02-25T12:24:31.152Z,99.76
2023-02-25T12:27:08.384Z,98.07
2023-02-25T12:30:06.979Z,98.75
2023-02-25T12:33:14.791Z,97.69
2023-02-25T12:36:03.719Z,98.12
2023-02-25T12:39:02.916Z,97.07
2023-02-25T12:41:46.529Z,98.44
2023-02-25T12:44:20.628Z,98.38
2023-02-25T12:47:04.274Z,98.93
2023-02-25T12:50:06.750Z,99.65
2023-02-25T12:52:50.187Z,98.44
2023-02-25T12:55:59.799Z,97.43
2023-02-25T12:59:06.130Z,99.09
2023-02-25T13:01:50.441Z,99.33
2023-02-25T13:04:45.163Z,97.03
2023-02-25T13:07:31.830Z,97.76
2023-02-25T13:10:25.167Z,96.68
2023-02-25T13:13:21.634Z,96.79
2023-02-25T13:16:38.599Z,98.69
2023-02-25T13:19:15.966Z,97.46
2023-02-25T13:22:17.939Z,93.41
2023-02-25T13:25:10.985Z,96.88
2023-02-25T13:27:57.944Z,96.33
2023-02-25T13:30:41.508Z,96.72
2023-02-25T13:33:28.032Z,94.98
2023-02-25T13:36:09.483Z,95.12
2023-02-25T13:39:02.865Z,95.55
2023-02-25T13:42:00.947Z,94.09
2023-02-25T13:45:14.171Z,94.37
2023-02-25T13:48:22.225Z,95.63
2023-02-25T13:51:24.642Z,95.12
2023-02-25T13:54:23.102Z,94.09
2023-02-25T13:57:32.195Z,94.46
2023-02-25T14:00:09.636Z,95.45
2023-02-25T14:03:04.768Z,95.90
2023-02-25T14:06:03.612Z,96.05
2023-02-25T14:09:04.609Z,95.83
2023-02-25T14:12:06.372Z,94.18
2023-02-25T14:15:04.667Z,94.80
2023-02-25T14:18:10.779Z,95.30
2023-02-25T14:21:24.295Z,96.02
2023-02-25T14:24:08.957Z,95.58
2023-02-25T14:27:04.605Z,93.88
2023-02-25T14:30:12.031Z,94.79
2023-02-25T14:33:01.285Z,93.79
2023-02-25T14:35:33.851Z,95.33
2023-02-25T14:38:08.609Z,96.00
2023-02-25T14:40:53.272Z,94.32
2023-02-25T14:43:29.692Z,94.31
2023-02-25T14:46:29.945Z,94.68
2023-02-25T14:49:26.799Z,94.28
2023-02-25T14:52:28.691Z,94.17
2023-02-25T14:55:34.455Z,92.88
2023-02-25T14:58:30.585Z,89.56
2023-02-25T15:01:38.619Z,90.03
2023-02-25T15:04:47.543Z,87.75
2023-02-25T15:07:40.683Z,89.42
2023-02-25T15:10:14.877Z,90.62
2023-02-25T15:13:17.012Z,89.97
2023-02-25T15:16:11.855Z,88.34
2023-02-25T15:19:01.944Z,88.75
2023-02-25T15:21:41.567Z,91.22
2023-02-25T15:24:37.967Z,90.08
2023-02-25T15:27:37.440Z,90.30
2023-02-25T15:30:14.514Z,89.60
2023-02-25T15:32:49.648Z,88.17
2023-02-25T15:35:49.592Z,88.38
2023-02-25T15:38:39.066Z,89.55
2023-02-25T15:41:28.745Z,88.55
2023-02-25T15:44:12.224Z,89.36
2023-02-25T15:46:45.904Z,89.30
2023-02-25T15:49:22.165Z,91.73
2023-02-25T15:52:04.910Z,90.87
2023-02-25T15:54:36.182Z,91.99
2023-02-25T15:57:10.233Z,92.59
2023-02-25T15:59:55.305Z,92.72
2023-02-25T16:02:26.745Z,91.92
2023-02-25T16:05:11.739Z,93.23
2023-02-25T16:08:06.991Z,93.01
2023-02-25T16:10:49.176Z,93.61
2023-02-25T16:13:27.136Z,93.51
2023-02-25T16:16:00.560Z,92.96
2023-02-25T16:18:36.824Z,92.81
2023-02-25T16:21:22.793Z,93.46
2023-02-25T16:23:54.686Z,94.39
2023-02-25T16:26:44.058Z,94.39
2023-02-25T16:29:33.655Z,93.97
2023-02-25T16:32:23.442Z,94.68
2023-02-25T16:35:06.818Z,94.50
2023-02-25T16:38:00.312Z,95.16
2023-02-25T16:40:37.566Z,95.86
2023-02-25T16:43:14.149Z,96.13
2023-02-25T16:45:57.277Z,96.16
2023-02-25T16:48:32.739Z,96.00
2023-02-25T16:51:10.370Z,96.06
2023-02-25T16:53:44.485Z,96.39
2023-02-25T16:56:28.912Z,97.01
2023-02-25T16:59:16.381Z,96.88
2023-02-25T17:01:56.829Z,97.03
2023-02-25T17:04:38.074Z,97.12
2023-02-25T17:07:14.398Z,96.85
2023-02-25T17:09:49.383Z,96.63
2023-02-25T17:12:30.941Z,96.70
2023-02-25T17:15:09.333Z,96.78
2023-02-25T17:17:43.075Z,96.72
2023-02-25T17:20:23.394Z,96.70
2023-02-25T17:22:56.572Z,96.10
2023-02-25T17:25:34.056Z,96.06
2023-02-25T17:28:07.548Z,96.20
2023-02-25T17:30:48.170Z,96.06
2023-02-25T17:33:28.039Z,96.05
2023-02-25T17:36:08.515Z,95.75
2023-02-25T17:38:41.915Z,95.82
2023-02-25T17:41:21.068Z,96.02
2023-02-25T17:43:53.098Z,95.44
2023-02-25T17:46:49.607Z,95.42
2023-02-25T17:49:22.957Z,94.94
2023-02-25T17:51:57.207Z,94.86
2023-02-25T17:54:32.447Z,95.04
2023-02-25T17:57:08.722Z,94.84
2023-02-25T17:59:42.410Z,94.87
2023-02-25T18:02:22.812Z,94.19
2023-02-25T18:05:12.487Z,94.53
2023-02-25T18:07:47.560Z,94.13
2023-02-25T18:10:31.106Z,94.37
2023-02-25T18:13:04.804Z,94.71
2023-02-25T18:15:36.195Z,94.49
2023-02-25T18:18:18.491Z,94.10
2023-02-25T18:20:49.914Z,94.39
2023-02-25T18:23:25.146Z,94.50
2023-02-25T18:26:19.001Z,94.61
2023-02-25T18:28:52.209Z,94.73
2023-02-25T18:31:23.755Z,94.11
2023-02-25T18:33:55.097Z,94.50
2023-02-25T18:36:28.098Z,94.54
2023-02-25T18:39:03.808Z,93.91
2023-02-25T18:41:35.138Z,94.07
2023-02-25T18:44:13.164Z,93.59
2023-02-25T18:46:44.425Z,94.30
2023-02-25T18:49:15.840Z,94.22
2023-02-25T18:51:49.284Z,94.21
2023-02-25T18:54:20.596Z,94.17
2023-02-25T18:56:52.216Z,94.88
2023-02-25T18:59:23.543Z,94.72
2023-02-25T19:01:54.945Z,94.59
2023-02-25T19:04:26.355Z,95.34
2023-02-25T19:06:57.630Z,94.94
2023-02-25T19:09:28.954Z,95.20
2023-02-25T19:12:00.307Z,95.44
2023-02-25T19:14:31.651Z,95.41
2023-02-25T19:17:03.435Z,95.40
2023-02-25T19:19:34.749Z,95.48
2023-02-25T19:22:06.074Z,95.52
2023-02-25T19:24:37.528Z,95.81
2023-02-25T19:27:30.062Z,96.32
2023-02-25T19:30:02.573Z,95.80
2023-02-25T19:32:33.933Z,95.67
2023-02-25T19:35:06.349Z,96.50
2023-02-25T19:37:39.970Z,96.02
2023-02-25T19:40:15.347Z,96.31
2023-02-25T19:42:46.982Z,95.64
2023-02-25T19:45:20.844Z,96.03
2023-02-25T19:47:54.630Z,95.96
2023-02-25T19:50:26.981Z,95.28
2023-02-25T19:52:58.452Z,95.58
2023-02-25T19:55:30.203Z,95.47
2023-02-25T19:58:02.066Z,94.92
2023-02-25T20:00:33.442Z,95.25
2023-02-25T20:03:04.999Z,95.29
2023-02-25T20:05:36.295Z,95.11
2023-02-25T20:08:08.512Z,94.45
2023-02-25T20:10:42.647Z,94.58
2023-02-25T20:13:14.783Z,94.97
2023-02-25T20:15:46.110Z,94.82
2023-02-25T20:18:17.499Z,94.51
2023-02-25T20:20:48.788Z,95.15
2023-02-25T20:23:20.090Z,95.13
2023-02-25T20:25:51.486Z,94.88
2023-02-25T20:28:23.927Z,94.88
2023-02-25T20:31:07.115Z,94.62
2023-02-25T20:33:39.273Z,95.63
2023-02-25T20:36:23.502Z,95.56
2023-02-25T20:39:25.246Z,95.95
2023-02-25T20:41:56.800Z,96.58
2023-02-25T20:44:28.194Z,96.46
2023-02-25T20:46:59.628Z,97.17
2023-02-25T20:49:31.074Z,96.61
2023-02-25T20:52:02.722Z,96.40
2023-02-25T20:54:34.079Z,96.46
2023-02-25T20:57:05.481Z,96.13
2023-02-25T20:59:36.861Z,96.16
2023-02-25T21:02:09.450Z,96.05
2023-02-25T21:04:40.813Z,96.35
2023-02-25T21:07:12.946Z,95.71
2023-02-25T21:09:44.383Z,95.71
2023-02-25T21:12:15.686Z,96.07
2023-02-25T21:14:47.038Z,96.61
2023-02-25T21:17:18.496Z,96.62
2023-02-25T21:19:49.789Z,96.57
2023-02-25T21:22:21.810Z,95.64
2023-02-25T21:24:53.256Z,96.23
2023-02-25T21:27:25.932Z,96.13
2023-02-25T21:29:57.210Z,96.01
2023-02-25T21:32:28.530Z,96.14
2023-02-25T21:34:59.866Z,95.87
2023-02-25T21:37:31.342Z,96.79
2023-02-25T21:40:04.003Z,96.72
2023-02-25T21:42:35.952Z,96.76
2023-02-25T21:45:09.378Z,97.28
2023-02-25T21:47:40.709Z,97.14
2023-02-25T21:50:13.098Z,97.29
2023-02-25T21:52:44.377Z,96.97
2023-02-25T21:55:15.781Z,97.78
2023-02-25T21:57:47.128Z,97.31
2023-02-25T22:00:19.373Z,97.27
2023-02-25T22:02:50.634Z,97.02
2023-02-25T22:05:22.146Z,97.70
2023-02-25T22:07:53.438Z,97.27
2023-02-25T22:10:24.992Z,96.87
2023-02-25T22:12:56.280Z,97.19
2023-02-25T22:15:28.682Z,96.65
2023-02-25T22:17:59.927Z,97.09
2023-02-25T22:20:31.212Z,96.76
2023-02-25T22:23:02.520Z,97.50
2023-02-25T22:25:33.800Z,97.57
2023-02-25T22:28:05.459Z,96.47
2023-02-25T22:30:36.790Z,96.65
2023-02-25T22:33:08.160Z,97.07
2023-02-25T22:35:39.574Z,97.67
2023-02-25T22:38:12.305Z,96.36
2023-02-25T22:40:43.706Z,97.71
2023-02-25T22:43:15.081Z,97.67
2023-02-25T22:45:46.420Z,97.46
2023-02-25T22:48:17.886Z,97.63
2023-02-25T22:50:49.639Z,97.53
2023-02-25T22:53:20.897Z,96.86
2023-02-25T22:55:52.216Z,97.63
2023-02-25T22:58:23.573Z,97.43
2023-02-25T23:00:55.198Z,96.57
2023-02-25T23:03:26.886Z,96.71
2023-02-25T23:05:58.246Z,97.00
2023-02-25T23:08:30.109Z,97.38
2023-02-25T23:11:08.533Z,97.30
2023-02-25T23:13:45.942Z,96.90
2023-02-25T23:16:39.458Z,97.78
2023-02-25T23:19:15.628Z,97.66
2023-02-25T23:21:47.033Z,96.72
2023-02-25T23:24:19.372Z,97.03
2023-02-25T23:26:53.527Z,96.84
2023-02-25T23:29:24.798Z,97.55
2023-02-25T23:31:56.179Z,96.84
2023-02-25T23:34:27.567Z,97.04
2023-02-25T23:36:58.829Z,97.10
2023-02-25T23:39:30.074Z,97.55
2023-02-25T23:42:01.359Z,97.21
2023-02-25T23:44:32.610Z,97.46
2023-02-25T23:47:03.908Z,97.21
2023-02-25T23:49:35.163Z,97.64
2023-02-25T23:52:06.452Z,97.82
2023-02-25T23:54:37.729Z,97.85
2023-02-25T23:57:09.010Z,98.07
2023-02-25T23:59:40.292Z,98.28
